.
WxDataArchive / Data Records for 2013-07-28
2013-07-27 July 2013 2013-07-29

Data Records for Sunday, 28 July 2013

Time	Temp	Chill	HIndex	Humid	Dewpt	 Wind 	HiWind	WindDir	Rain 	Barom 
-----	----	-----	------	-----	-----	------	------	-------	-----	----- 
00:00	56.9	56.9	56.9	79	50.5	0	0	---	0.00	29.897 
00:05	56.6	56.6	56.6	80	50.5	0	0	---	0.00	29.897 
00:10	56.5	56.5	56.5	80	50.4	0	0	---	0.00	29.897 
00:15	56.3	56.3	56.3	81	50.5	0	0	---	0.00	29.890 
00:20	56.2	56.2	56.2	81	50.4	0	0	---	0.00	29.890 
00:25	56.0	56.0	56.0	81	50.3	0	0	---	0.00	29.890 
00:30	55.9	55.9	55.9	81	50.2	0	0	---	0.00	29.885 
00:35	55.7	55.7	55.7	81	50.0	0	0	---	0.00	29.885 
00:40	55.6	55.6	55.6	81	49.9	0	0	---	0.00	29.885 
00:45	55.4	55.4	55.4	81	49.7	0	0	---	0.00	29.884 
00:50	55.3	55.3	55.3	82	49.9	0	0	---	0.00	29.884 
00:55	55.0	55.0	55.0	83	49.9	0	0	---	0.00	29.884 
01:00	54.7	54.7	54.7	84	50.0	0	0	---	0.00	29.884 
01:05	54.4	54.4	54.4	84	49.7	0	0	---	0.00	29.884 
01:10	54.2	54.2	54.2	85	49.8	0	0	---	0.00	29.884 
01:15	54.1	54.1	54.1	86	50.0	0	0	---	0.00	29.885 
01:20	54.1	54.1	54.1	86	50.0	0	0	---	0.00	29.885 
01:25	54.1	54.1	54.1	86	50.0	0	0	---	0.00	29.885 
01:30	53.9	53.9	53.9	86	49.8	0	0	---	0.00	29.884 
01:35	53.9	53.9	53.9	86	49.8	0	0	---	0.00	29.884 
01:40	53.8	53.8	53.8	86	49.7	0	0	---	0.00	29.884 
01:45	53.8	53.8	53.8	86	49.7	0	0	---	0.00	29.880 
01:50	53.6	53.6	53.6	87	49.8	0	0	---	0.00	29.880 
01:55	53.5	53.5	53.5	87	49.7	0	0	---	0.00	29.880 
02:00	53.3	53.3	53.3	87	49.5	0	0	---	0.00	29.878 
02:05	53.3	53.3	53.3	87	49.5	0	0	---	0.00	29.878 
02:10	53.2	53.2	53.2	88	49.7	0	0	---	0.00	29.878 
02:15	53.1	53.1	53.1	88	49.6	0	0	---	0.00	29.873 
02:20	53.1	53.1	53.1	88	49.6	0	0	---	0.00	29.873 
02:25	53.1	53.1	53.1	88	49.6	0	0	---	0.00	29.873 
02:30	53.1	53.1	53.1	88	49.6	0	0	---	0.00	29.872 
02:35	53.1	53.1	53.1	89	49.9	0	0	---	0.00	29.872 
02:40	53.1	53.1	53.1	89	49.9	0	0	---	0.00	29.872 
02:45	53.2	53.2	53.2	89	50.0	0	0	---	0.00	29.871 
02:50	53.2	53.2	53.2	89	50.0	0	0	---	0.00	29.871 
02:55	53.2	53.2	53.2	89	50.0	0	0	---	0.00	29.871 
03:00	53.1	53.1	53.1	89	49.9	0	0	---	0.00	29.869 
03:05	53.1	53.1	53.1	89	49.9	0	0	---	0.00	29.869 
03:10	52.9	52.9	52.9	89	49.7	0	0	---	0.00	29.869 
03:15	52.9	52.9	52.9	89	49.7	0	0	---	0.00	29.870 
03:20	52.8	52.8	52.8	90	49.9	0	0	---	0.00	29.870 
03:25	52.8	52.8	52.8	90	49.9	0	0	---	0.00	29.870 
03:30	52.8	52.8	52.8	90	49.9	0	0	---	0.00	29.871 
03:35	52.6	52.6	52.6	90	49.7	0	0	---	0.00	29.871 
03:40	52.6	52.6	52.6	90	49.7	0	0	---	0.00	29.871 
03:45	52.5	52.5	52.5	90	49.7	0	0	---	0.00	29.871 
03:50	52.5	52.5	52.5	90	49.7	0	0	---	0.00	29.871 
03:55	52.5	52.5	52.5	90	49.7	0	0	---	0.00	29.871 
04:00	52.5	52.5	52.5	91	49.9	0	0	---	0.00	29.871 
04:05	52.5	52.5	52.5	91	49.9	0	0	---	0.00	29.871 
04:10	52.3	52.3	52.3	91	49.8	0	0	---	0.00	29.871 
04:15	52.5	52.5	52.5	91	49.9	0	0	---	0.00	29.876 
04:20	52.5	52.5	52.5	91	49.9	0	0	---	0.00	29.876 
04:25	52.5	52.5	52.5	91	49.9	0	0	---	0.00	29.876 
04:30	52.5	52.5	52.5	91	49.9	0	0	---	0.00	29.875 
04:35	52.5	52.5	52.5	91	49.9	0	1	270	0.00	29.875 
04:40	52.6	52.6	52.6	91	50.0	0	0	---	0.00	29.875 
04:45	52.5	52.5	52.5	90	49.7	0	0	---	0.00	29.873 
04:50	52.5	52.5	52.5	90	49.7	0	0	---	0.00	29.873 
04:55	52.5	52.5	52.5	90	49.7	0	0	---	0.00	29.873 
05:00	52.3	52.3	52.3	90	49.5	0	0	---	0.00	29.872 
05:05	52.3	52.3	52.3	90	49.5	0	0	---	0.00	29.872 
05:10	52.3	52.3	52.3	90	49.5	0	0	---	0.00	29.872 
05:15	52.2	52.2	52.2	90	49.4	0	0	---	0.00	29.880 
05:20	52.2	52.2	52.2	90	49.4	0	0	---	0.00	29.880 
05:25	52.0	52.0	52.0	90	49.2	0	0	---	0.00	29.880 
05:30	52.0	52.0	52.0	91	49.5	0	0	---	0.00	29.883 
05:35	52.0	52.0	52.0	91	49.5	0	0	---	0.00	29.883 
05:40	51.9	51.9	51.9	91	49.4	0	0	---	0.00	29.883 
05:45	51.9	51.9	51.9	91	49.4	0	0	---	0.00	29.887 
05:50	51.9	51.9	51.9	91	49.4	0	0	---	0.00	29.887 
05:55	51.9	51.9	51.9	91	49.4	0	0	---	0.00	29.887 
06:00	52.0	52.0	52.0	91	49.5	0	0	---	0.00	29.888 
06:05	52.0	52.0	52.0	91	49.5	0	0	---	0.00	29.888 
06:10	52.2	52.2	52.2	91	49.7	0	1	270	0.00	29.888 
06:15	52.2	52.2	52.2	91	49.7	0	0	---	0.00	29.884 
06:20	52.2	52.2	52.2	90	49.4	0	0	---	0.00	29.884 
06:25	52.2	52.2	52.2	90	49.4	0	1	270	0.00	29.884 
06:30	52.3	52.3	52.3	90	49.5	0	1	270	0.00	29.892 
06:35	52.5	52.5	52.5	89	49.4	0	0	---	0.00	29.892 
06:40	52.6	52.6	52.6	88	49.1	0	1	270	0.00	29.892 
06:45	52.8	52.8	52.8	88	49.3	0	1	270	0.00	29.895 
06:50	52.8	52.8	52.8	87	49.0	0	1	270	0.00	29.895 
06:55	52.9	52.9	52.9	87	49.1	0	1	270	0.00	29.895 
07:00	53.1	53.1	53.1	86	49.0	0	1	270	0.00	29.898 
07:05	53.2	53.2	53.2	85	48.8	0	1	270	0.00	29.898 
07:10	53.3	53.3	53.3	84	48.6	0	1	270	0.00	29.898 
07:15	53.5	53.5	53.5	84	48.8	0	1	270	0.00	29.908 
07:20	53.8	53.8	53.8	83	48.8	0	1	270	0.00	29.908 
07:25	53.9	53.9	53.9	82	48.5	0	2	270	0.00	29.908 
07:30	54.1	54.1	54.1	82	48.7	0	1	270	0.00	29.912 
07:35	54.2	54.2	54.2	82	48.8	0	1	270	0.00	29.912 
07:40	54.4	54.4	54.4	81	48.7	0	1	270	0.00	29.912 
07:45	54.7	54.7	54.7	81	49.0	0	2	270	0.00	29.913 
07:50	55.0	55.0	55.0	80	48.9	0	2	270	0.00	29.913 
07:55	55.1	55.1	55.1	79	48.7	1	3	270	0.00	29.913 
08:00	55.6	55.6	55.6	78	48.8	0	2	270	0.00	29.921 
08:05	55.9	55.9	55.9	77	48.8	1	3	270	0.00	29.921 
08:10	56.0	56.0	56.0	76	48.5	1	3	270	0.00	29.921 
08:15	56.3	56.3	56.3	76	48.8	1	3	270	0.00	29.925 
08:20	56.6	56.6	56.6	75	48.8	1	2	270	0.00	29.925 
08:25	56.7	56.7	56.7	74	48.5	1	4	270	0.00	29.925 
08:30	57.0	57.0	57.0	74	48.8	0	2	270	0.00	29.924 
08:35	57.3	57.3	57.3	73	48.7	1	2	270	0.00	29.924 
08:40	57.5	57.5	57.5	73	48.9	1	3	270	0.00	29.924 
08:45	57.8	57.8	57.8	71	48.5	1	3	270	0.00	29.922 
08:50	58.3	58.3	58.3	70	48.6	0	2	270	0.00	29.922 
08:55	58.4	58.4	58.4	70	48.7	1	3	270	0.00	29.922 
09:00	58.6	58.6	58.6	69	48.5	1	3	292	0.00	29.923 
09:05	58.9	58.9	58.9	69	48.7	1	3	292	0.00	29.923 
09:10	59.3	59.3	59.3	69	49.1	1	3	292	0.00	29.923 
09:15	59.2	59.2	59.2	66	47.8	1	3	248	0.00	29.926 
09:20	58.9	58.9	58.9	67	48.0	1	3	270	0.00	29.926 
09:25	59.0	59.0	59.0	68	48.5	0	3	248	0.00	29.926 
09:30	58.9	58.9	58.9	67	48.0	1	5	270	0.00	29.926 
09:35	58.9	58.9	58.9	67	48.0	1	4	270	0.00	29.926 
09:40	58.7	58.7	58.7	68	48.2	1	3	270	0.00	29.926 
09:45	58.7	58.7	58.7	67	47.8	1	5	270	0.00	29.926 
09:50	58.7	58.7	58.7	68	48.2	1	3	248	0.00	29.926 
09:55	58.6	58.6	58.6	68	48.1	1	3	270	0.00	29.926 
10:00	58.7	58.7	58.7	68	48.2	1	4	270	0.00	29.925 
10:05	59.0	59.0	59.0	68	48.5	2	5	270	0.00	29.925 
10:10	59.5	59.5	59.5	67	48.5	1	3	270	0.00	29.925 
10:15	59.6	59.6	59.6	66	48.2	2	5	270	0.00	29.926 
10:20	60.1	60.1	60.1	66	48.7	1	3	270	0.00	29.926 
10:25	60.2	60.2	60.2	64	48.0	2	4	270	0.00	29.926 
10:30	60.7	60.7	60.7	64	48.4	1	3	270	0.00	29.923 
10:35	61.2	61.2	61.2	62	48.1	1	4	270	0.00	29.923 
10:40	61.6	61.6	61.6	61	48.0	2	4	270	0.00	29.923 
10:45	62.0	62.0	62.0	61	48.4	1	3	270	0.00	29.924 
10:50	62.6	62.6	62.6	60	48.5	2	5	270	0.00	29.924 
10:55	63.4	63.4	63.4	59	48.8	2	6	315	0.00	29.924 
11:00	63.7	63.7	63.7	57	48.2	2	4	248	0.00	29.924 
11:05	63.7	63.7	63.7	56	47.7	2	5	270	0.00	29.924 
11:10	63.5	63.5	63.5	58	48.5	3	6	270	0.00	29.924 
11:15	63.7	63.7	63.7	60	49.5	1	4	270	0.00	29.926 
11:20	63.9	63.9	63.9	58	48.8	3	6	270	0.00	29.926 
11:25	63.7	63.7	63.7	58	48.6	3	7	292	0.00	29.926 
11:30	63.9	63.9	63.9	58	48.8	2	5	270	0.00	29.925 
11:35	64.5	64.5	64.5	58	49.4	2	7	270	0.00	29.925 
11:40	64.8	64.8	64.8	58	49.7	3	5	270	0.00	29.925 
11:45	65.5	65.5	65.5	56	49.4	2	4	270	0.00	29.923 
11:50	65.2	65.2	65.2	54	48.1	3	5	270	0.00	29.923 
11:55	65.2	65.2	65.2	54	48.1	2	5	292	0.00	29.923 
12:00	65.6	65.6	65.6	54	48.5	2	5	292	0.00	29.921 
12:05	66.1	66.1	66.1	54	49.0	1	4	270	0.00	29.921 
12:10	66.4	66.4	66.4	53	48.7	2	4	270	0.00	29.921 
12:15	66.3	66.3	66.3	52	48.1	2	7	292	0.00	29.919 
12:20	65.8	65.8	65.8	54	48.7	3	6	292	0.00	29.919 
12:25	66.4	66.4	66.4	54	49.2	1	5	270	0.00	29.919 
12:30	66.9	66.9	66.9	52	48.7	2	4	270	0.00	29.912 
12:35	66.9	66.9	66.9	50	47.6	2	5	292	0.00	29.912 
12:40	66.8	66.8	66.8	52	48.6	1	4	270	0.00	29.912 
12:45	66.8	66.8	66.8	52	48.6	1	4	270	0.00	29.908 
12:50	67.1	67.1	67.1	52	48.9	1	4	248	0.00	29.908 
12:55	67.9	67.9	67.9	52	49.6	1	3	225	0.00	29.908 
13:00	68.1	68.1	68.1	50	48.7	1	4	225	0.00	29.908 
13:05	67.8	67.8	67.8	50	48.5	2	5	270	0.00	29.908 
13:10	67.6	67.6	67.6	49	47.8	2	4	270	0.00	29.908 
13:15	67.8	67.8	67.8	50	48.5	1	3	270	0.00	29.909 
13:20	67.9	67.9	67.9	51	49.1	1	3	270	0.00	29.909 
13:25	68.3	68.3	68.3	49	48.4	2	4	270	0.00	29.909 
13:30	68.1	68.1	68.1	49	48.2	2	6	270	0.00	29.910 
13:35	68.1	68.1	68.1	48	47.7	1	4	270	0.00	29.910 
13:40	68.3	68.3	68.3	50	48.9	2	5	270	0.00	29.910 
13:45	68.1	68.1	68.1	47	47.1	2	6	270	0.00	29.910 
13:50	67.8	67.8	67.8	49	47.9	2	4	270	0.00	29.910 
13:55	67.6	67.6	67.6	50	48.3	0	2	270	0.00	29.910 
14:00	67.8	67.8	67.8	50	48.5	1	5	270	0.00	29.910 
14:05	67.6	67.6	67.6	50	48.3	1	3	270	0.00	29.910 
14:10	67.3	67.3	67.3	50	48.0	2	6	270	0.00	29.910 
14:15	66.9	66.9	66.9	51	48.2	2	4	270	0.00	29.911 
14:20	66.9	66.9	66.9	52	48.7	1	4	270	0.00	29.911 
14:25	66.8	66.8	66.8	52	48.6	2	5	270	0.00	29.911 
14:30	66.6	66.6	66.6	52	48.4	1	4	270	0.00	29.910 
14:35	66.4	66.4	66.4	53	48.7	0	2	270	0.00	29.910 
14:40	66.4	66.4	66.4	53	48.7	0	4	270	0.00	29.910 
14:45	66.3	66.3	66.3	53	48.6	1	3	270	0.00	29.916 
14:50	66.4	66.4	66.4	53	48.7	2	6	270	0.00	29.916 
14:55	66.4	66.4	66.4	53	48.7	2	4	270	0.00	29.916 
15:00	66.4	66.4	66.4	53	48.7	2	6	270	0.00	29.914 
15:05	66.4	66.4	66.4	54	49.2	2	4	270	0.00	29.914 
15:10	66.4	66.4	66.4	55	49.7	2	6	270	0.00	29.914 
15:15	66.3	66.3	66.3	55	49.6	2	5	270	0.00	29.923 
15:20	65.6	65.6	65.6	55	49.0	3	5	270	0.00	29.923 
15:25	65.5	65.5	65.5	56	49.4	2	7	270	0.00	29.923 
15:30	65.6	65.6	65.6	56	49.5	2	5	270	0.00	29.927 
15:35	66.4	66.4	66.4	56	50.2	3	6	270	0.00	29.927 
15:40	66.9	66.9	66.9	56	50.7	2	7	270	0.00	29.927 
15:45	66.8	66.8	66.8	54	49.6	3	9	270	0.00	29.926 
15:50	66.6	66.6	66.6	54	49.4	3	6	270	0.00	29.926 
15:55	66.6	66.6	66.6	54	49.4	3	5	270	0.00	29.926 
16:00	66.9	66.9	66.9	54	49.7	3	7	270	0.00	29.927 
16:05	67.3	67.3	67.3	53	49.6	3	5	292	0.00	29.927 
16:10	67.6	67.6	67.6	53	49.9	3	6	270	0.00	29.927 
16:15	67.1	67.1	67.1	52	48.9	3	7	270	0.00	29.934 
16:20	66.8	66.8	66.8	55	50.1	1	4	270	0.00	29.934 
16:25	67.4	67.4	67.4	54	50.2	2	5	270	0.00	29.934 
16:30	66.9	66.9	66.9	54	49.7	3	6	270	0.00	29.937 
16:35	66.6	66.6	66.6	54	49.4	2	4	270	0.00	29.937 
16:40	66.4	66.4	66.4	54	49.2	2	6	270	0.00	29.937 
16:45	66.1	66.1	66.1	54	49.0	3	6	270	0.00	29.941 
16:50	66.0	66.0	66.0	56	49.8	1	4	270	0.00	29.941 
16:55	66.0	66.0	66.0	56	49.8	1	2	270	0.00	29.941 
17:00	66.0	66.0	66.0	55	49.4	2	6	270	0.00	29.946 
17:05	66.0	66.0	66.0	56	49.8	2	6	270	0.00	29.946 
17:10	65.8	65.8	65.8	55	49.2	3	6	270	0.00	29.946 
17:15	65.5	65.5	65.5	55	48.9	2	4	270	0.00	29.954 
17:20	65.3	65.3	65.3	55	48.7	3	7	270	0.00	29.954 
17:25	65.2	65.2	65.2	56	49.1	2	5	270	0.00	29.954 
17:30	65.2	65.2	65.2	55	48.6	2	6	270	0.00	29.950 
17:35	65.3	65.3	65.3	54	48.2	3	6	270	0.00	29.950 
17:40	65.8	65.8	65.8	54	48.7	2	4	315	0.00	29.950 
17:45	66.3	66.3	66.3	55	49.6	1	4	292	0.00	29.952 
17:50	66.3	66.3	66.3	53	48.6	2	4	292	0.00	29.952 
17:55	66.4	66.4	66.4	55	49.7	1	3	292	0.00	29.952 
18:00	67.1	67.1	67.1	54	49.9	1	4	292	0.00	29.955 
18:05	67.8	67.8	67.8	51	49.0	3	6	270	0.00	29.955 
18:10	67.9	67.9	67.9	50	48.6	3	7	270	0.00	29.955 
18:15	67.8	67.8	67.8	50	48.5	3	7	270	0.00	29.954 
18:20	67.4	67.4	67.4	51	48.6	3	6	270	0.00	29.954 
18:25	67.3	67.3	67.3	52	49.1	1	3	270	0.00	29.954 
18:30	67.4	67.4	67.4	52	49.2	2	5	270	0.00	29.957 
18:35	67.3	67.3	67.3	50	48.0	3	6	270	0.00	29.957 
18:40	66.9	66.9	66.9	50	47.6	3	7	270	0.00	29.957 
18:45	66.8	66.8	66.8	50	47.6	3	5	270	0.00	29.957 
18:50	66.4	66.4	66.4	51	47.7	3	5	270	0.00	29.957 
18:55	66.4	66.4	66.4	52	48.2	1	4	270	0.00	29.957 
19:00	66.8	66.8	66.8	52	48.6	2	4	270	0.00	29.957 
19:05	66.6	66.6	66.6	51	47.9	2	4	270	0.00	29.957 
19:10	66.4	66.4	66.4	52	48.2	2	4	315	0.00	29.957 
19:15	66.3	66.3	66.3	53	48.6	1	3	292	0.00	29.962 
19:20	66.3	66.3	66.3	54	49.1	1	4	270	0.00	29.962 
19:25	66.3	66.3	66.3	54	49.1	1	3	270	0.00	29.962 
19:30	66.4	66.4	66.4	53	48.7	1	4	270	0.00	29.964 
19:35	66.3	66.3	66.3	51	47.6	3	7	270	0.00	29.964 
19:40	66.1	66.1	66.1	52	48.0	2	7	270	0.00	29.964 
19:45	66.1	66.1	66.1	52	48.0	2	6	270	0.00	29.970 
19:50	66.1	66.1	66.1	52	48.0	1	3	270	0.00	29.970 
19:55	66.1	66.1	66.1	52	48.0	1	3	270	0.00	29.970 
20:00	66.0	66.0	66.0	52	47.9	1	4	270	0.00	29.970 
20:05	65.8	65.8	65.8	54	48.7	1	3	270	0.00	29.970 
20:10	65.6	65.6	65.6	55	49.0	1	2	270	0.00	29.970 
20:15	65.5	65.5	65.5	55	48.9	0	2	270	0.00	29.972 
20:20	65.2	65.2	65.2	56	49.1	0	2	270	0.00	29.972 
20:25	65.0	65.0	65.0	57	49.4	0	1	270	0.00	29.972 
20:30	64.8	64.8	64.8	57	49.2	0	1	270	0.00	29.976 
20:35	64.7	64.7	64.7	58	49.6	0	1	270	0.00	29.976 
20:40	64.5	64.5	64.5	58	49.4	0	1	270	0.00	29.976 
20:45	64.2	64.2	64.2	58	49.1	0	1	270	0.00	29.984 
20:50	64.0	64.0	64.0	59	49.4	0	1	270	0.00	29.984 
20:55	63.7	63.7	63.7	59	49.1	0	0	---	0.00	29.984 
21:00	63.5	63.5	63.5	60	49.4	0	0	---	0.00	29.986 
21:05	63.2	63.2	63.2	61	49.5	0	0	---	0.00	29.986 
21:10	62.9	62.9	62.9	61	49.2	0	0	---	0.00	29.986 
21:15	62.6	62.6	62.6	62	49.4	0	0	---	0.00	29.987 
21:20	62.3	62.3	62.3	62	49.1	0	0	---	0.00	29.987 
21:25	61.8	61.8	61.8	65	49.9	0	0	---	0.00	29.987 
21:30	61.5	61.5	61.5	65	49.6	0	0	---	0.00	29.991 
21:35	61.2	61.2	61.2	65	49.3	0	0	---	0.00	29.991 
21:40	60.9	60.9	60.9	66	49.5	0	0	---	0.00	29.991 
21:45	60.5	60.5	60.5	67	49.5	0	0	---	0.00	29.997 
21:50	60.1	60.1	60.1	68	49.5	0	0	---	0.00	29.997 
21:55	59.8	59.8	59.8	70	50.0	0	0	---	0.00	29.997 
22:00	59.3	59.3	59.3	71	49.9	0	0	---	0.00	30.005 
22:05	58.9	58.9	58.9	72	49.9	0	0	---	0.00	30.005 
22:10	58.6	58.6	58.6	73	50.0	0	0	---	0.00	30.005 
22:15	58.3	58.3	58.3	74	50.0	0	0	---	0.00	30.002 
22:20	58.3	58.3	58.3	75	50.4	0	0	---	0.00	30.002 
22:25	58.1	58.1	58.1	76	50.6	0	0	---	0.00	30.002 
22:30	58.0	58.0	58.0	76	50.5	0	0	---	0.00	30.002 
22:35	58.0	58.0	58.0	77	50.8	0	0	---	0.00	30.002 
22:40	57.6	57.6	57.6	77	50.4	0	0	---	0.00	30.002 
22:45	57.5	57.5	57.5	78	50.7	0	0	---	0.00	30.003 
22:50	57.3	57.3	57.3	78	50.5	0	0	---	0.00	30.003 
22:55	57.2	57.2	57.2	79	50.7	0	0	---	0.00	30.003 
23:00	57.0	57.0	57.0	79	50.5	0	0	---	0.00	30.005 
23:05	56.9	56.9	56.9	80	50.8	0	0	---	0.00	30.005 
23:10	56.6	56.6	56.6	80	50.5	0	0	---	0.00	30.005 
23:15	56.5	56.5	56.5	81	50.7	0	0	---	0.00	30.004 
23:20	56.2	56.2	56.2	82	50.8	0	0	---	0.00	30.004 
23:25	56.0	56.0	56.0	82	50.6	0	0	---	0.00	30.004 
23:30	55.9	55.9	55.9	82	50.5	0	0	---	0.00	30.006 
23:35	55.7	55.7	55.7	83	50.6	0	0	---	0.00	30.006 
23:40	55.4	55.4	55.4	83	50.3	0	0	---	0.00	30.006 
23:45	55.3	55.3	55.3	84	50.5	0	0	---	0.00	30.009 
23:50	55.1	55.1	55.1	84	50.4	0	0	---	0.00	30.009 
23:55	54.8	54.8	54.8	85	50.4	0	0	---	0.00	30.009 

CoCoRaHS
IN-AL-39
A2 Web Hosting
Creative Commons License
GoDaddy
search engine by freefind advanced

loaded 2018-11-22 05:50:07 • last modified 2010-11-18 10:43:29
Privacy PolicyDisclaimer
• wx.awcolley.com is powered by PmWiki v.2002016 •
• all content (unless otherwise noted) © 2018 A W Colley